createdAt,value
2023-03-06T06:03:13.987Z,30.16
2023-03-06T06:04:14.967Z,30.18
2023-03-06T07:52:19.085Z,29.93
2023-03-06T07:53:19.355Z,30.04
2023-03-06T07:54:19.159Z,29.96
2023-03-06T07:55:19.286Z,30.04
2023-03-06T07:56:19.232Z,30.04
2023-03-06T07:57:19.291Z,29.97
2023-03-06T07:58:19.379Z,29.95
2023-03-06T07:59:19.338Z,29.85
2023-03-06T08:00:19.356Z,29.92
2023-03-06T08:01:19.414Z,29.97
2023-03-06T08:02:19.403Z,29.91
2023-03-06T08:03:19.514Z,29.82
2023-03-06T08:04:19.523Z,29.86
2023-03-06T08:05:19.463Z,29.92
2023-03-06T08:08:19.553Z,29.92
2023-03-06T08:09:19.589Z,29.86
2023-03-06T08:12:19.637Z,29.89
2023-03-06T08:14:19.658Z,29.82
2023-03-06T08:15:19.673Z,29.88
2023-03-06T08:16:19.704Z,29.86
2023-03-06T08:17:19.684Z,29.88
2023-03-06T08:18:19.776Z,29.94
2023-03-06T08:19:19.696Z,29.89
2023-03-06T08:21:19.703Z,29.76
2023-03-06T08:22:19.734Z,29.79
2023-03-06T08:23:19.741Z,29.83
2023-03-06T08:24:19.786Z,29.89
2023-03-06T08:25:19.825Z,29.92
2023-03-06T08:26:19.860Z,29.86
2023-03-06T08:27:19.853Z,29.91
2023-03-06T08:28:19.940Z,29.98
2023-03-06T08:29:19.921Z,29.94
2023-03-06T08:30:19.967Z,29.92
2023-03-06T08:33:20.062Z,29.98
2023-03-06T08:34:20.072Z,29.80
2023-03-06T08:35:20.138Z,29.85
2023-03-06T08:36:19.137Z,29.89
2023-03-06T08:37:20.165Z,29.98
2023-03-06T08:38:20.154Z,30.06
2023-03-06T08:39:20.202Z,29.90
2023-03-06T08:40:20.202Z,30.12
2023-03-06T08:41:20.497Z,29.88
2023-03-06T08:42:20.951Z,29.88
2023-03-06T08:43:20.289Z,30.00
2023-03-06T08:44:20.304Z,29.95
2023-03-06T08:45:20.485Z,29.97
2023-03-06T08:46:20.339Z,29.77
2023-03-06T08:47:19.375Z,29.83
2023-03-06T08:48:20.881Z,29.99
2023-03-06T08:49:19.427Z,29.96
2023-03-06T08:50:20.431Z,29.99
2023-03-06T08:51:20.503Z,29.98
2023-03-06T08:52:19.459Z,29.98
2023-03-06T08:53:21.616Z,29.92
2023-03-06T08:55:20.473Z,29.95
2023-03-06T08:56:20.458Z,29.92
2023-03-06T08:57:19.485Z,29.92
2023-03-06T08:58:19.531Z,29.88
2023-03-06T08:59:20.449Z,29.91
2023-03-06T09:00:20.491Z,29.95
2023-03-06T09:01:20.487Z,29.93
2023-03-06T09:02:20.503Z,29.86
2023-03-06T09:03:20.415Z,29.98
2023-03-06T09:04:20.416Z,29.88
2023-03-06T09:05:20.465Z,29.92
2023-03-06T09:06:20.414Z,29.92
2023-03-06T09:07:19.409Z,29.88
2023-03-06T09:08:20.386Z,29.91
2023-03-06T09:09:20.396Z,30.04
2023-03-06T09:10:20.403Z,29.93
2023-03-06T09:11:20.420Z,30.01
2023-03-06T09:12:20.372Z,29.85
2023-03-06T09:13:20.367Z,29.98
2023-03-06T09:14:20.398Z,29.99
2023-03-06T09:15:20.455Z,29.90
2023-03-06T09:16:20.388Z,29.73
2023-03-06T09:17:19.390Z,29.85
2023-03-06T09:18:20.330Z,29.82
2023-03-06T09:19:20.343Z,29.86
2023-03-06T09:20:20.340Z,29.88
2023-03-06T09:21:20.308Z,29.94
2023-03-06T09:22:19.313Z,29.89
2023-03-06T09:23:20.317Z,29.92
2023-03-06T09:24:20.300Z,29.98
2023-03-06T09:25:20.514Z,29.88
2023-03-06T09:26:20.296Z,29.81
2023-03-06T09:27:19.289Z,29.90
2023-03-06T09:28:20.280Z,29.89
2023-03-06T09:29:20.333Z,29.85
2023-03-06T09:30:20.354Z,29.81
2023-03-06T09:31:20.372Z,29.97
2023-03-06T09:32:20.411Z,29.91
2023-03-06T09:33:20.398Z,29.79
2023-03-06T09:34:20.439Z,29.88
2023-03-06T09:35:20.445Z,29.81
2023-03-06T09:36:20.455Z,29.79
2023-03-06T09:37:20.464Z,29.96
2023-03-06T09:39:20.501Z,29.85
2023-03-06T09:41:20.555Z,29.86
2023-03-06T09:42:20.532Z,29.85
2023-03-06T09:43:19.892Z,29.77
2023-03-06T09:44:20.592Z,29.76
2023-03-06T09:45:20.617Z,29.86
2023-03-06T09:46:20.761Z,29.80
2023-03-06T09:47:20.697Z,29.95
2023-03-06T09:48:20.666Z,29.89
2023-03-06T09:49:20.671Z,29.99
2023-03-06T09:50:20.707Z,29.84
2023-03-06T09:51:20.741Z,29.84
2023-03-06T09:52:20.769Z,29.90
2023-03-06T09:53:20.845Z,29.91
2023-03-06T09:54:20.803Z,29.98
2023-03-06T09:55:20.814Z,29.92
2023-03-06T09:56:20.834Z,29.94
2023-03-06T09:57:20.832Z,29.86
2023-03-06T10:00:19.913Z,29.85
2023-03-06T10:01:20.962Z,29.94
2023-03-06T10:02:21.152Z,29.86
2023-03-06T10:04:20.028Z,29.88
2023-03-06T10:06:20.090Z,29.84
2023-03-06T10:07:21.127Z,29.86
2023-03-06T10:13:20.298Z,30.02
2023-03-06T10:15:21.339Z,29.91
2023-03-06T10:16:20.365Z,29.81
2023-03-06T10:18:20.441Z,29.79
2023-03-06T10:20:20.470Z,29.88
2023-03-06T10:28:20.607Z,29.96
2023-03-06T10:33:20.713Z,29.78
2023-03-06T10:34:20.786Z,29.82
2023-03-06T10:35:20.818Z,29.77
2023-03-06T10:37:20.775Z,29.70
2023-03-06T10:39:21.828Z,29.69
2023-03-06T10:40:21.814Z,29.76
2023-03-06T10:41:21.844Z,29.88
2023-03-06T10:42:21.856Z,29.79
2023-03-06T10:43:21.870Z,29.98
2023-03-06T10:44:20.905Z,29.82
2023-03-06T10:45:20.994Z,29.87
2023-03-06T10:46:21.991Z,29.73
2023-03-06T10:47:21.972Z,29.81
2023-03-06T10:48:20.978Z,29.78
2023-03-06T10:49:21.447Z,29.90
2023-03-06T10:50:22.006Z,29.83
2023-03-06T10:51:21.981Z,29.86
2023-03-06T10:52:21.995Z,29.79
2023-03-06T10:53:22.033Z,29.96
2023-03-06T10:54:21.425Z,29.70
2023-03-06T10:55:20.999Z,29.75
2023-03-06T10:56:22.005Z,29.80
2023-03-06T10:58:22.045Z,29.75
2023-03-06T10:59:22.102Z,29.87
2023-03-06T11:00:22.085Z,29.75
2023-03-06T11:01:22.155Z,29.90
2023-03-06T11:02:22.123Z,29.85
2023-03-06T11:03:22.148Z,29.79
2023-03-06T11:04:22.238Z,29.85
2023-03-06T11:05:22.208Z,29.94
2023-03-06T11:06:22.241Z,29.84
2023-03-06T11:07:22.261Z,29.80
2023-03-06T11:08:22.269Z,29.84
2023-03-06T11:09:21.281Z,29.86
2023-03-06T11:10:21.296Z,29.94
2023-03-06T11:11:36.480Z,30.00
2023-03-06T11:12:22.316Z,29.91
2023-03-06T11:13:22.322Z,29.97
2023-03-06T11:14:22.306Z,30.00
2023-03-06T11:15:22.401Z,29.88
2023-03-06T11:16:25.109Z,29.90
2023-03-06T11:17:22.283Z,29.93
2023-03-06T11:18:21.343Z,29.86
2023-03-06T11:19:21.279Z,29.88
2023-03-06T11:20:22.279Z,29.81
2023-03-06T11:21:22.267Z,29.80
2023-03-06T11:22:22.346Z,29.84
2023-03-06T11:23:21.232Z,29.99
2023-03-06T11:24:22.238Z,29.99
2023-03-06T11:25:22.237Z,29.90
2023-03-06T11:26:22.238Z,30.00
2023-03-06T11:27:21.324Z,30.08
2023-03-06T11:29:21.246Z,29.91
2023-03-06T11:30:22.211Z,29.81
2023-03-06T11:31:22.235Z,29.75
2023-03-06T11:32:22.206Z,29.73
2023-03-06T11:33:22.172Z,29.83
2023-03-06T11:34:21.234Z,29.72
2023-03-06T11:35:22.185Z,29.92
2023-03-06T11:36:22.158Z,29.96
2023-03-06T11:37:22.174Z,29.87
2023-03-06T11:38:22.150Z,29.88
2023-03-06T11:39:22.133Z,29.83
2023-03-06T11:40:22.110Z,29.97
2023-03-06T11:41:22.118Z,29.93
2023-03-06T11:42:22.124Z,29.94
2023-03-06T11:43:22.104Z,29.75
2023-03-06T11:44:21.110Z,29.93
2023-03-06T11:45:22.111Z,29.94
2023-03-06T11:46:21.111Z,30.05
2023-03-06T11:47:22.090Z,29.87
2023-03-06T11:48:22.064Z,29.84
2023-03-06T11:49:21.079Z,29.72
2023-03-06T11:50:22.095Z,29.81
2023-03-06T11:51:21.055Z,29.77
2023-03-06T11:52:22.049Z,29.81
2023-03-06T11:53:22.094Z,29.99
2023-03-06T11:54:22.069Z,29.81
2023-03-06T11:55:22.023Z,29.92
2023-03-06T11:56:22.030Z,29.83
2023-03-06T11:57:22.037Z,29.93
2023-03-06T11:58:22.072Z,29.87
2023-03-06T11:59:22.105Z,29.75
2023-03-06T12:00:21.094Z,29.84
2023-03-06T12:01:22.119Z,29.71
2023-03-06T12:02:21.262Z,29.89
2023-03-06T12:03:22.137Z,29.86
2023-03-06T12:04:21.177Z,29.74
2023-03-06T12:05:22.221Z,29.83
2023-03-06T12:06:22.173Z,30.02
2023-03-06T12:07:22.209Z,30.03
2023-03-06T12:08:22.209Z,29.86
2023-03-06T12:09:22.231Z,29.96
2023-03-06T12:10:22.289Z,29.73
2023-03-06T12:11:22.275Z,29.74
2023-03-06T12:12:22.299Z,29.83
2023-03-06T12:13:21.284Z,29.77
2023-03-06T12:14:21.425Z,29.78
2023-03-06T12:15:22.313Z,29.89
2023-03-06T12:16:22.397Z,29.83
2023-03-06T12:17:22.342Z,29.71
2023-03-06T12:18:22.331Z,29.77
2023-03-06T12:19:22.347Z,29.85
2023-03-06T12:20:22.352Z,29.73
2023-03-06T12:21:22.358Z,29.98
2023-03-06T12:22:22.369Z,29.91
2023-03-06T12:23:22.391Z,30.05
2023-03-06T12:24:22.404Z,29.80
2023-03-06T12:25:22.395Z,29.95
2023-03-06T12:26:22.431Z,29.90
2023-03-06T12:27:22.420Z,29.87
2023-03-06T12:28:22.410Z,29.91
2023-03-06T12:29:22.417Z,29.97
2023-03-06T12:30:22.434Z,29.79
2023-03-06T12:31:22.448Z,29.86
2023-03-06T12:32:21.470Z,29.89
2023-03-06T12:33:22.472Z,29.93
2023-03-06T12:34:22.499Z,29.86
2023-03-06T12:35:22.570Z,29.95
2023-03-06T12:36:22.509Z,29.88
2023-03-06T12:37:22.550Z,29.94
2023-03-06T12:38:22.526Z,29.79
2023-03-06T12:39:22.985Z,29.92
2023-03-06T12:40:22.552Z,29.80
2023-03-06T12:41:22.563Z,30.01
2023-03-06T12:42:23.821Z,29.89
2023-03-06T12:43:22.616Z,29.99
2023-03-06T12:44:22.614Z,29.89
2023-03-06T12:45:21.613Z,29.97
2023-03-06T12:46:22.695Z,29.85
2023-03-06T12:47:22.642Z,29.91
2023-03-06T12:48:22.675Z,29.89
2023-03-06T12:49:31.400Z,29.94
2023-03-06T12:50:22.660Z,29.85
2023-03-06T12:51:22.644Z,29.89
2023-03-06T12:52:29.638Z,30.01
2023-03-06T12:53:22.658Z,30.01
2023-03-06T12:54:22.653Z,30.02
2023-03-06T12:55:25.492Z,29.93
2023-03-06T12:56:22.648Z,29.85
2023-03-06T12:57:22.644Z,29.73
2023-03-06T12:58:21.637Z,29.75
2023-03-06T12:59:22.601Z,29.73
2023-03-06T13:00:22.595Z,29.77
2023-03-06T13:01:22.620Z,29.80
2023-03-06T13:02:21.600Z,29.85
2023-03-06T13:03:22.572Z,29.89
2023-03-06T13:04:22.561Z,29.94
2023-03-06T13:05:22.565Z,29.89
2023-03-06T13:06:22.545Z,29.98
2023-03-06T13:07:22.549Z,29.96
2023-03-06T13:08:21.553Z,29.90
2023-03-06T13:09:22.536Z,29.97
2023-03-06T13:10:22.526Z,29.96
2023-03-06T13:11:22.532Z,30.00
2023-03-06T13:12:22.520Z,29.99
2023-03-06T13:13:22.507Z,29.97
2023-03-06T13:14:22.529Z,29.91
2023-03-06T13:15:22.504Z,30.00
2023-03-06T13:16:22.610Z,30.00
2023-03-06T13:17:22.485Z,30.00
2023-03-06T13:18:22.508Z,30.02
2023-03-06T13:19:22.474Z,29.99
2023-03-06T13:20:21.491Z,30.07
2023-03-06T13:21:22.470Z,30.03
2023-03-06T13:22:22.447Z,30.01
2023-03-06T13:23:22.442Z,30.05
2023-03-06T13:24:21.432Z,30.06
2023-03-06T13:25:22.514Z,30.08
2023-03-06T13:26:22.432Z,30.02
2023-03-06T13:28:22.410Z,30.02
2023-03-06T13:29:22.407Z,30.04
2023-03-06T13:30:22.431Z,29.99
2023-03-06T13:31:27.481Z,30.05
2023-03-06T13:32:22.431Z,30.05
2023-03-06T13:33:21.405Z,29.91
2023-03-06T13:34:22.373Z,30.04
2023-03-06T13:35:21.550Z,30.77
2023-03-06T13:36:22.351Z,31.28
2023-03-06T13:37:22.385Z,31.89
2023-03-06T13:38:22.397Z,31.67
2023-03-06T13:39:22.569Z,31.93
2023-03-06T13:40:21.331Z,32.07
2023-03-06T13:41:22.456Z,32.07
2023-03-06T13:42:22.311Z,31.81
2023-03-06T13:43:21.313Z,31.84
2023-03-06T13:44:22.302Z,31.76
2023-03-06T13:45:22.295Z,31.64
2023-03-06T13:46:22.346Z,31.73
2023-03-06T13:47:22.286Z,31.58
2023-03-06T13:48:41.674Z,31.60
2023-03-06T13:49:22.261Z,31.52
2023-03-06T13:50:22.273Z,31.51
2023-03-06T13:51:22.260Z,31.74
2023-03-06T13:52:22.253Z,31.57
2023-03-06T13:53:22.234Z,31.84
2023-03-06T13:54:22.270Z,31.58
2023-03-06T13:55:22.238Z,31.65
2023-03-06T13:56:22.231Z,31.59
2023-03-06T13:57:22.250Z,31.57
2023-03-06T13:58:22.216Z,31.75
2023-03-06T13:59:22.186Z,31.62
2023-03-06T14:00:22.193Z,31.75
2023-03-06T14:01:22.279Z,31.66
2023-03-06T14:02:22.265Z,31.72
2023-03-06T14:03:22.178Z,32.00
2023-03-06T14:04:22.167Z,31.74
2023-03-06T14:05:21.154Z,31.78
2023-03-06T14:06:22.148Z,31.65
2023-03-06T14:07:22.211Z,31.74
2023-03-06T14:08:22.157Z,31.87
2023-03-06T14:09:21.125Z,31.82
2023-03-06T14:10:21.130Z,32.17
2023-03-06T14:11:22.120Z,31.89
2023-03-06T14:12:22.126Z,31.92
2023-03-06T14:13:22.188Z,32.04
2023-03-06T14:14:21.089Z,31.95
2023-03-06T14:15:22.079Z,31.89
2023-03-06T14:16:22.148Z,32.13
2023-03-06T14:17:22.079Z,31.93
2023-03-06T14:18:22.227Z,31.99
2023-03-06T14:19:22.098Z,32.14
2023-03-06T14:20:21.069Z,32.31
2023-03-06T14:21:22.145Z,32.25
2023-03-06T14:22:22.044Z,32.14
2023-03-06T14:23:21.051Z,32.18
2023-03-06T14:24:22.050Z,32.41
2023-03-06T14:25:22.136Z,32.77
2023-03-06T14:26:22.694Z,32.41
2023-03-06T14:28:41.347Z,32.59
2023-03-06T14:29:40.616Z,32.06
2023-03-06T14:30:41.176Z,32.28
2023-03-06T14:31:42.273Z,32.53
2023-03-06T14:40:58.084Z,32.48
2023-03-06T14:42:58.185Z,32.74
2023-03-06T15:06:59.976Z,33.20
2023-03-06T15:09:00.054Z,33.19
2023-03-06T15:10:00.101Z,33.22
2023-03-06T15:12:00.170Z,33.27
2023-03-06T15:13:00.180Z,33.24
2023-03-06T15:14:00.335Z,33.24
2023-03-06T15:15:00.319Z,33.30
2023-03-06T15:16:00.378Z,33.27
2023-03-06T15:17:00.408Z,33.31
2023-03-06T15:19:00.475Z,33.26
2023-03-06T15:20:00.541Z,33.25
2023-03-06T15:21:00.576Z,33.28
2023-03-06T15:22:00.578Z,33.22
2023-03-06T15:23:00.617Z,33.28
2023-03-06T15:25:00.613Z,33.26
2023-03-06T15:26:01.317Z,33.25
2023-03-06T15:27:00.627Z,33.30
2023-03-06T15:28:00.649Z,33.26
2023-03-06T15:29:08.902Z,33.27
2023-03-06T15:30:00.681Z,33.29
2023-03-06T15:31:00.631Z,33.26
2023-03-06T15:32:00.681Z,33.24
2023-03-06T15:33:00.623Z,33.24
2023-03-06T15:35:00.599Z,33.14
2023-03-06T15:37:00.601Z,33.25
2023-03-06T15:38:00.914Z,33.23
2023-03-06T15:39:00.611Z,33.09
2023-03-06T15:40:00.565Z,33.18
2023-03-06T15:41:00.572Z,33.21
2023-03-06T15:42:00.560Z,33.22
2023-03-06T15:43:00.551Z,33.13
2023-03-06T15:45:00.586Z,33.15
2023-03-06T15:46:00.651Z,33.11
2023-03-06T15:47:08.554Z,33.09
2023-03-06T15:48:00.516Z,33.15
2023-03-06T15:49:02.460Z,33.09
2023-03-06T15:50:00.513Z,33.09
2023-03-06T15:52:00.504Z,33.03
2023-03-06T15:53:00.477Z,33.00
2023-03-06T15:54:11.342Z,33.04
2023-03-06T15:55:00.480Z,33.11
2023-03-06T15:57:00.482Z,33.01
2023-03-06T15:58:00.490Z,33.08
2023-03-06T15:59:00.494Z,32.99
2023-03-06T16:00:00.461Z,33.06
2023-03-06T16:01:00.493Z,33.06
2023-03-06T16:02:00.432Z,33.07
2023-03-06T16:03:00.422Z,32.97
2023-03-06T16:04:00.449Z,32.87
2023-03-06T16:05:00.418Z,32.89
2023-03-06T16:06:00.409Z,33.04
2023-03-06T16:07:00.396Z,32.95
2023-03-06T16:08:00.404Z,32.81
2023-03-06T16:09:00.381Z,33.00
2023-03-06T16:10:00.389Z,33.04
2023-03-06T16:11:00.474Z,33.00
2023-03-06T16:12:00.364Z,33.01
2023-03-06T16:13:00.359Z,33.06
2023-03-06T16:14:00.368Z,33.05
2023-03-06T16:16:00.351Z,33.13
2023-03-06T16:20:00.332Z,33.21
2023-03-06T16:21:00.302Z,33.11
2023-03-06T16:22:00.295Z,33.12
2023-03-06T16:23:00.276Z,33.13
2023-03-06T16:26:00.298Z,33.02
2023-03-06T16:27:00.310Z,33.17
2023-03-06T16:28:00.251Z,33.24
